createdAt,value
2024-04-08T00:00:43.502Z,55.49
2024-04-08T00:05:46.562Z,55.45
2024-04-08T00:10:49.557Z,55.46
2024-04-08T00:16:00.201Z,54.90
2024-04-08T00:21:07.255Z,54.93
2024-04-08T00:26:10.614Z,54.56
2024-04-08T00:31:14.817Z,54.19
2024-04-08T00:36:17.883Z,54.08
2024-04-08T00:41:20.850Z,53.64
2024-04-08T00:46:24.964Z,53.09
2024-04-08T00:51:28.646Z,52.92
2024-04-08T00:56:31.927Z,52.67
2024-04-08T01:01:35.445Z,52.83
2024-04-08T01:06:38.997Z,52.38
2024-04-08T01:11:44.716Z,51.66
2024-04-08T01:16:48.742Z,51.38
2024-04-08T01:21:52.320Z,51.24
2024-04-08T01:26:55.220Z,49.94
2024-04-08T01:31:58.220Z,49.69
2024-04-08T01:37:01.708Z,49.46
2024-04-08T01:42:04.833Z,49.19
2024-04-08T01:47:08.657Z,48.92
2024-04-08T01:52:11.592Z,48.95
2024-04-08T01:57:14.514Z,48.55
2024-04-08T02:02:18.103Z,48.84
2024-04-08T02:07:21.000Z,47.82
2024-04-08T02:12:23.867Z,47.55
2024-04-08T02:17:27.743Z,47.30
2024-04-08T02:22:30.788Z,47.09
2024-04-08T02:27:34.204Z,46.77
2024-04-08T02:32:37.223Z,47.03
2024-04-08T02:37:40.104Z,46.21
2024-04-08T02:42:44.545Z,45.80
2024-04-08T02:47:47.558Z,45.39
2024-04-08T02:52:50.446Z,45.42
2024-04-08T02:57:53.998Z,45.50
2024-04-08T03:02:56.956Z,44.54
2024-04-08T03:08:00.118Z,44.55
2024-04-08T03:13:03.212Z,44.52
2024-04-08T03:18:08.432Z,43.96
2024-04-08T03:23:11.339Z,43.69
2024-04-08T03:28:15.088Z,43.72
2024-04-08T03:33:23.355Z,43.38
2024-04-08T03:38:26.220Z,43.14
2024-04-08T03:43:30.071Z,42.40
2024-04-08T03:48:34.844Z,42.36
2024-04-08T03:53:38.095Z,42.01
2024-04-08T03:58:43.076Z,41.85
2024-04-08T04:03:45.976Z,42.02
2024-04-08T04:08:49.903Z,41.93
2024-04-08T04:13:53.238Z,41.38
2024-04-08T04:18:57.081Z,41.17
2024-04-08T04:24:00.035Z,40.77
2024-04-08T04:29:03.202Z,40.68
2024-04-08T04:34:06.127Z,40.15
2024-04-08T04:39:11.841Z,39.75
2024-04-08T04:44:14.940Z,39.34
2024-04-08T04:49:19.133Z,39.51
2024-04-08T04:54:21.955Z,39.20
2024-04-08T04:59:25.314Z,39.07
2024-04-08T05:04:28.381Z,38.69
2024-04-08T05:09:31.346Z,38.71
2024-04-08T05:14:35.542Z,38.66
2024-04-08T05:19:38.766Z,38.92
2024-04-08T05:24:41.640Z,38.17
2024-04-08T05:29:44.906Z,37.95
2024-04-08T05:34:47.806Z,37.26
2024-04-08T05:39:51.076Z,37.20
2024-04-08T05:44:57.698Z,37.39
2024-04-08T05:50:01.165Z,37.16
2024-04-08T05:55:06.054Z,37.21
2024-04-08T06:00:12.429Z,36.97
2024-04-08T06:05:15.475Z,36.50
2024-04-08T06:10:22.238Z,36.39
2024-04-08T06:15:25.770Z,36.67
2024-04-08T06:20:29.442Z,36.44
2024-04-08T06:25:33.790Z,36.43
2024-04-08T06:30:37.878Z,36.22
2024-04-08T06:35:48.529Z,35.98
2024-04-08T06:40:51.904Z,36.32
2024-04-08T06:46:02.908Z,36.12
2024-04-08T06:51:06.241Z,36.64
2024-04-08T06:56:10.088Z,36.30
2024-04-08T07:01:14.039Z,36.29
2024-04-08T07:06:17.256Z,36.52
2024-04-08T07:11:20.257Z,36.40
2024-04-08T07:16:23.424Z,36.10
2024-04-08T07:21:26.489Z,35.74
2024-04-08T07:26:30.582Z,35.63
2024-04-08T07:31:34.762Z,35.35
2024-04-08T07:36:37.951Z,35.06
2024-04-08T07:41:41.029Z,35.08
2024-04-08T07:46:44.353Z,34.88
2024-04-08T07:51:47.271Z,35.02
2024-04-08T07:56:50.317Z,35.08
2024-04-08T08:01:53.700Z,34.45
2024-04-08T08:06:56.689Z,34.22
2024-04-08T08:11:59.738Z,34.41
2024-04-08T08:17:04.130Z,34.00
2024-04-08T08:22:08.563Z,33.91
2024-04-08T08:27:11.446Z,34.00
2024-04-08T08:32:15.418Z,33.32
2024-04-08T08:37:18.428Z,33.23
2024-04-08T08:42:23.239Z,33.00
2024-04-08T08:47:26.238Z,32.92
2024-04-08T08:52:29.731Z,32.37
2024-04-08T08:57:33.765Z,30.81
2024-04-08T09:02:39.641Z,31.21
2024-04-08T09:07:42.754Z,31.58
2024-04-08T09:12:46.105Z,31.58
2024-04-08T09:17:49.295Z,31.58
2024-04-08T09:22:52.228Z,31.67
2024-04-08T09:27:56.004Z,31.99
2024-04-08T09:32:59.456Z,31.45
2024-04-08T09:38:04.081Z,31.79
2024-04-08T09:43:08.791Z,31.05
2024-04-08T09:48:15.130Z,30.38
2024-04-08T09:53:18.578Z,30.90
2024-04-08T09:58:23.388Z,30.98
2024-04-08T10:03:27.237Z,31.34
2024-04-08T10:08:30.490Z,30.39
2024-04-08T10:13:33.715Z,30.64
2024-04-08T10:18:53.472Z,30.52
2024-04-08T10:23:56.783Z,30.30
2024-04-08T10:29:00.173Z,29.95
2024-04-08T10:34:03.200Z,30.14
2024-04-08T10:39:10.901Z,30.30
2024-04-08T10:44:14.225Z,31.11
2024-04-08T10:49:17.815Z,30.52
2024-04-08T10:54:20.955Z,30.79
2024-04-08T10:59:24.461Z,30.84
2024-04-08T11:04:29.990Z,30.88
2024-04-08T11:09:32.840Z,31.08
2024-04-08T11:14:36.469Z,31.18
2024-04-08T11:19:41.295Z,31.24
2024-04-08T11:24:44.490Z,31.67
2024-04-08T11:29:47.951Z,32.51
2024-04-08T11:34:51.899Z,32.83
2024-04-08T11:39:54.782Z,32.79
2024-04-08T11:45:06.916Z,32.97
2024-04-08T11:50:11.755Z,32.93
2024-04-08T11:55:14.682Z,33.32
2024-04-08T12:00:22.453Z,33.54
2024-04-08T12:05:25.585Z,33.41
2024-04-08T12:10:28.470Z,34.01
2024-04-08T12:15:31.625Z,34.01
2024-04-08T12:20:34.765Z,34.46
2024-04-08T12:25:38.273Z,34.57
2024-04-08T12:30:44.246Z,34.75
2024-04-08T12:35:47.896Z,34.97
2024-04-08T12:40:51.689Z,35.01
2024-04-08T12:45:56.686Z,35.25
2024-04-08T12:50:59.784Z,35.58
2024-04-08T12:56:05.000Z,35.82
2024-04-08T13:01:08.577Z,36.22
2024-04-08T13:06:12.101Z,36.65
2024-04-08T13:11:16.727Z,37.49
2024-04-08T13:16:20.682Z,38.08
2024-04-08T13:21:27.739Z,38.86
2024-04-08T13:26:33.593Z,38.97
2024-04-08T13:31:36.855Z,39.51
2024-04-08T13:36:39.766Z,39.34
2024-04-08T13:41:42.698Z,39.50
2024-04-08T13:46:46.018Z,39.54
2024-04-08T13:51:59.494Z,39.54
2024-04-08T13:57:02.775Z,39.71
2024-04-08T14:02:07.043Z,39.75
2024-04-08T14:07:10.130Z,39.70
2024-04-08T14:12:13.088Z,39.81
2024-04-08T14:17:18.785Z,39.82
2024-04-08T14:22:23.891Z,40.26
2024-04-08T14:27:26.842Z,40.32
2024-04-08T14:32:30.243Z,40.28
2024-04-08T14:37:50.819Z,40.54
2024-04-08T14:42:57.254Z,40.75
2024-04-08T14:48:01.557Z,41.02
2024-04-08T14:53:05.773Z,41.12
2024-04-08T14:58:09.341Z,41.29
2024-04-08T15:03:13.475Z,41.28
2024-04-08T15:08:18.562Z,41.78
2024-04-08T15:13:22.179Z,41.89
2024-04-08T15:18:26.973Z,42.41
2024-04-08T15:23:32.391Z,43.06
2024-04-08T15:28:35.677Z,43.69
2024-04-08T15:33:38.814Z,44.31
2024-04-08T15:38:43.146Z,44.99
2024-04-08T15:43:46.672Z,45.61
2024-04-08T15:48:50.890Z,46.47
2024-04-08T15:53:54.172Z,46.65
2024-04-08T15:58:57.914Z,47.25
2024-04-08T16:04:01.265Z,47.63
2024-04-08T16:09:10.460Z,47.99
2024-04-08T16:14:13.790Z,48.46
2024-04-08T16:19:16.622Z,48.72
2024-04-08T16:24:20.157Z,48.86
2024-04-08T16:29:23.359Z,49.23
2024-04-08T16:34:26.408Z,49.54
2024-04-08T16:39:29.619Z,50.05
2024-04-08T16:44:34.382Z,50.01
2024-04-08T16:49:37.340Z,50.41
2024-04-08T16:54:42.797Z,50.72
2024-04-08T16:59:45.829Z,50.81
2024-04-08T17:04:49.059Z,51.39
2024-04-08T17:09:52.191Z,51.88
2024-04-08T17:14:55.526Z,52.13
2024-04-08T17:19:58.311Z,52.37
2024-04-08T17:25:01.535Z,52.62
2024-04-08T17:30:07.792Z,53.03
2024-04-08T17:35:10.916Z,53.76
2024-04-08T17:40:13.774Z,53.96
2024-04-08T17:45:17.269Z,54.19
2024-04-08T17:50:21.387Z,54.69
2024-04-08T17:55:25.504Z,54.74
2024-04-08T18:00:28.588Z,55.00
2024-04-08T18:05:31.869Z,55.43
2024-04-08T18:10:35.056Z,55.50
2024-04-08T18:15:39.036Z,55.83
2024-04-08T18:20:42.630Z,56.08
2024-04-08T18:25:55.424Z,56.29
2024-04-08T18:31:11.700Z,56.81
2024-04-08T18:36:15.923Z,57.00
2024-04-08T18:41:22.212Z,56.83
2024-04-08T18:46:26.652Z,57.06
2024-04-08T18:51:29.839Z,57.17
2024-04-08T18:56:32.828Z,57.58
2024-04-08T19:01:36.599Z,57.67
2024-04-08T19:06:39.737Z,57.75
2024-04-08T19:11:48.338Z,58.24
2024-04-08T19:16:58.569Z,58.44
2024-04-08T19:22:01.679Z,58.80
2024-04-08T19:27:04.938Z,59.12
2024-04-08T19:32:08.433Z,59.53
2024-04-08T19:37:11.602Z,59.57
2024-04-08T19:42:14.831Z,59.65
2024-04-08T19:47:18.367Z,59.86
2024-04-08T19:52:21.971Z,59.95
2024-04-08T19:57:25.115Z,60.24
2024-04-08T20:02:28.246Z,60.52
2024-04-08T20:07:31.301Z,60.58
2024-04-08T20:12:34.356Z,60.43
2024-04-08T20:17:37.975Z,60.78
2024-04-08T20:22:40.961Z,60.89
2024-04-08T20:27:43.953Z,61.08
2024-04-08T20:32:47.215Z,61.26
2024-04-08T20:37:50.190Z,61.49
2024-04-08T20:42:53.833Z,61.24
2024-04-08T20:47:57.623Z,61.32
2024-04-08T20:53:00.564Z,61.41
2024-04-08T20:58:05.914Z,60.94
2024-04-08T21:03:08.982Z,60.05
2024-04-08T21:08:12.338Z,59.41
2024-04-08T21:13:15.875Z,58.94
2024-04-08T21:18:18.927Z,58.89
2024-04-08T21:23:22.273Z,58.61
2024-04-08T21:28:26.131Z,58.43
2024-04-08T21:33:29.137Z,58.10
2024-04-08T21:38:32.341Z,57.92
2024-04-08T21:43:36.019Z,57.95
2024-04-08T21:48:39.499Z,57.73
2024-04-08T21:53:42.696Z,57.59
2024-04-08T21:58:46.597Z,57.70
2024-04-08T22:03:52.541Z,57.55
2024-04-08T22:08:55.524Z,57.27
2024-04-08T22:13:58.562Z,57.21
2024-04-08T22:19:02.095Z,57.21
2024-04-08T22:24:05.207Z,57.33
2024-04-08T22:29:08.573Z,57.43
2024-04-08T22:34:12.042Z,57.33
2024-04-08T22:39:15.495Z,57.28
2024-04-08T22:44:19.325Z,57.25
2024-04-08T22:49:22.523Z,57.56
2024-04-08T22:54:25.437Z,57.66
2024-04-08T22:59:29.790Z,58.05
2024-04-08T23:04:33.017Z,58.41
2024-04-08T23:09:36.013Z,58.46
2024-04-08T23:14:39.439Z,58.67
2024-04-08T23:19:42.391Z,59.12
2024-04-08T23:24:45.772Z,59.49
2024-04-08T23:29:51.889Z,60.20
2024-04-08T23:34:56.725Z,60.84
2024-04-08T23:39:59.844Z,61.46
2024-04-08T23:45:02.967Z,62.15
2024-04-08T23:50:08.104Z,62.29
2024-04-08T23:55:11.209Z,62.15
